Time;durP1;ratioP1;P1;durP2;ratioP2;P2;SDS_P1;SDS_P2;PMS_P1;PMS_P2;Temp;Humidity;BMP_temperature;BMP_pressure;BME280_temperature;BME280_humidity;BME280_pressure;Samples;Min_cycle;Max_cycle;Signal;HPM_P1;HPM_P2
2022/09/04 00:00:09;;;;;;;1.35;1.25;;;15.70;65.20;;;;;;5001087;28;20042;-74
2022/09/04 00:02:47;;;;;;;2.28;1.70;;;15.60;65.50;;;;;;4986829;28;20046;-75
2022/09/04 00:05:27;;;;;;;2.92;2.00;;;15.60;65.40;;;;;;4999695;28;20416;-74
2022/09/04 00:08:12;;;;;;;3.83;2.00;;;15.60;65.30;;;;;;4983456;28;20108;-75
2022/09/04 00:10:50;;;;;;;3.42;1.90;;;15.60;65.20;;;;;;4968387;28;20045;-75
2022/09/04 00:13:21;;;;;;;2.47;1.80;;;15.60;65.30;;;;;;5001830;28;20136;-75
2022/09/04 00:15:53;;;;;;;2.45;1.77;;;15.50;65.30;;;;;;5001159;28;20030;-75
2022/09/04 00:18:38;;;;;;;3.60;2.17;;;15.50;65.50;;;;;;4985181;28;20069;-75
2022/09/04 00:21:23;;;;;;;3.53;1.73;;;15.50;65.50;;;;;;4999305;28;20040;-75
2022/09/04 00:23:51;;;;;;;2.13;1.93;;;15.50;65.60;;;;;;4985879;28;20034;-75
2022/09/04 00:26:44;;;;;;;3.20;1.90;;;15.40;65.60;;;;;;5002396;28;20287;-75
2022/09/04 00:29:20;;;;;;;2.65;1.77;;;15.30;65.30;;;;;;4929928;29;20035;-75
2022/09/04 00:32:09;;;;;;;4.22;2.22;;;15.30;65.70;;;;;;4913263;29;20047;-74
2022/09/04 00:34:54;;;;;;;3.63;2.10;;;15.30;66.10;;;;;;4940012;28;20676;-73
2022/09/04 00:37:25;;;;;;;5.10;2.20;;;15.30;66.20;;;;;;4939268;29;20458;-73
2022/09/04 00:40:08;;;;;;;2.55;1.63;;;15.20;66.20;;;;;;4941190;28;20271;-73
2022/09/04 00:43:21;;;;;;;4.55;1.98;;;15.20;66.30;;;;;;4928370;29;20413;-73
2022/09/04 00:46:16;;;;;;;2.55;1.95;;;15.20;66.50;;;;;;4879021;29;20044;-73
2022/09/04 00:49:23;;;;;;;3.22;2.00;;;15.20;66.60;;;;;;4878450;29;20067;-73
2022/09/04 00:52:10;;;;;;;2.30;2.08;;;15.20;66.60;;;;;;4816255;29;20091;-73
2022/09/04 00:54:44;;;;;;;3.17;1.77;;;15.10;66.50;;;;;;4813572;29;20057;-74
2022/09/04 00:57:32;;;;;;;2.53;1.80;;;15.10;66.40;;;;;;4816960;29;20518;-74
2022/09/04 01:00:08;;;;;;;4.82;1.92;;;15.10;66.40;;;;;;4812548;29;20047;-73
2022/09/04 01:03:11;;;;;;;4.13;2.08;;;15.10;66.60;;;;;;4816012;29;20089;-73
2022/09/04 01:06:05;;;;;;;2.33;1.98;;;15.00;66.70;;;;;;4819808;29;20040;-74
2022/09/04 01:08:40;;;;;;;4.70;1.85;;;15.00;66.70;;;;;;4847384;29;20041;-75
2022/09/04 01:11:19;;;;;;;3.13;2.00;;;15.00;66.70;;;;;;4834073;29;20665;-74
2022/09/04 01:14:22;;;;;;;2.88;1.80;;;14.90;66.90;;;;;;4822589;29;20076;-73
2022/09/04 01:17:24;;;;;;;2.30;1.80;;;14.90;66.90;;;;;;4848270;29;20049;-74
2022/09/04 01:20:11;;;;;;;4.00;1.80;;;14.90;67.00;;;;;;4801825;29;20043;-73
2022/09/04 01:23:07;;;;;;;3.92;1.88;;;14.90;66.70;;;;;;4890367;29;20033;-74
2022/09/04 01:25:57;;;;;;;1.98;1.77;;;14.80;66.70;;;;;;4890898;29;20493;-74
2022/09/04 01:29:00;;;;;;;2.65;2.00;;;14.80;66.90;;;;;;4936311;28;20053;-75
2022/09/04 01:31:57;;;;;;;3.47;1.70;;;14.80;67.10;;;;;;4976323;28;20062;-75
2022/09/04 01:34:37;;;;;;;1.70;1.60;;;14.80;67.10;;;;;;4962437;28;20093;-75
2022/09/04 01:37:29;;;;;;;2.75;1.70;;;14.70;67.10;;;;;;4944868;28;20047;-75
2022/09/04 01:40:05;;;;;;;2.33;1.63;;;14.80;67.30;;;;;;4957401;28;20031;-75
2022/09/04 01:42:56;;;;;;;3.08;1.70;;;14.70;67.30;;;;;;4946481;28;20153;-75
2022/09/04 01:45:31;;;;;;;2.45;1.65;;;14.70;67.40;;;;;;4945032;28;20395;-75
2022/09/04 01:48:02;;;;;;;1.63;1.52;;;14.70;67.40;;;;;;4945623;28;20517;-75
2022/09/04 01:50:31;;;;;;;5.28;1.83;;;14.60;67.40;;;;;;4961538;28;20498;-76
2022/09/04 01:53:11;;;;;;;3.90;1.60;;;14.60;67.50;;;;;;4945819;28;20038;-75
2022/09/04 01:55:48;;;;;;;3.65;2.00;;;14.60;67.60;;;;;;4968146;28;20070;-75
2022/09/04 01:58:37;;;;;;;6.45;2.28;;;14.60;67.50;;;;;;4973339;28;20535;-76
2022/09/04 02:01:18;;;;;;;2.13;1.80;;;14.60;67.40;;;;;;5004183;28;20034;-76
2022/09/04 02:04:06;;;;;;;6.63;1.85;;;14.50;67.50;;;;;;4986532;28;20042;-75
2022/09/04 02:07:00;;;;;;;4.57;2.30;;;14.50;67.70;;;;;;4969907;28;20735;-74
2022/09/04 02:09:55;;;;;;;1.88;1.60;;;14.50;67.70;;;;;;4986369;28;20045;-75
2022/09/04 02:12:27;;;;;;;2.80;1.85;;;14.50;67.70;;;;;;5002164;28;20064;-74
2022/09/04 02:15:16;;;;;;;4.90;2.10;;;14.40;67.70;;;;;;5002572;28;20096;-75
2022/09/04 02:17:49;;;;;;;6.15;2.03;;;14.40;68.00;;;;;;4968311;28;20038;-75
2022/09/04 02:20:26;;;;;;;3.78;1.60;;;14.40;68.00;;;;;;4989493;28;20508;-75
2022/09/04 02:23:25;;;;;;;5.38;2.47;;;14.40;68.10;;;;;;4985876;28;20037;-75
2022/09/04 02:26:25;;;;;;;2.88;1.77;;;14.40;68.20;;;;;;5002157;28;20054;-74
2022/09/04 02:29:00;;;;;;;2.50;1.83;;;14.40;68.20;;;;;;4972164;28;20133;-74
2022/09/04 02:31:33;;;;;;;4.13;1.63;;;14.40;68.30;;;;;;4985214;28;20038;-74
2022/09/04 02:34:12;;;;;;;3.13;2.00;;;14.30;68.40;;;;;;4985789;28;20034;-75
2022/09/04 02:36:53;;;;;;;3.20;2.00;;;14.30;68.70;;;;;;5003136;28;20045;-75
2022/09/04 02:39:25;;;;;;;1.90;1.80;;;14.30;68.50;;;;;;4996538;28;20070;-75
2022/09/04 02:42:18;;;;;;;2.97;2.00;;;14.30;68.50;;;;;;5002578;28;20057;-75
2022/09/04 02:44:47;;;;;;;3.50;2.40;;;14.30;68.60;;;;;;5001166;28;20065;-75
2022/09/04 02:48:04;;;;;;;2.50;2.00;;;14.30;68.60;;;;;;4984923;28;20034;-74
2022/09/04 02:50:49;;;;;;;;;;;14.30;68.70;;;;;;4964519;28;20043;-74
2022/09/04 02:53:42;;;;;;;3.47;2.08;;;14.30;68.80;;;;;;4946900;28;19961;-73
2022/09/04 02:56:23;;;;;;;3.00;2.22;;;14.30;68.70;;;;;;4965224;28;20046;-74
2022/09/04 02:59:21;;;;;;;3.78;2.28;;;14.20;68.80;;;;;;4967104;28;20043;-74
2022/09/04 03:02:02;;;;;;;4.50;2.50;;;14.20;69.10;;;;;;4962431;28;20488;-74
2022/09/04 03:05:06;;;;;;;2.55;2.05;;;14.10;69.10;;;;;;4946798;28;20035;-74
2022/09/04 03:07:39;;;;;;;3.92;2.50;;;14.20;69.20;;;;;;4964411;28;20521;-75
2022/09/04 03:10:19;;;;;;;3.75;2.50;;;14.20;69.30;;;;;;4949356;28;20062;-74
2022/09/04 03:12:58;;;;;;;4.45;2.60;;;14.10;69.50;;;;;;4956771;28;20529;-74
2022/09/04 03:15:37;;;;;;;3.72;2.70;;;14.20;69.60;;;;;;4961208;28;20125;-75
2022/09/04 03:18:24;;;;;;;6.80;2.80;;;14.00;69.80;;;;;;4964813;28;20415;-74
2022/09/04 03:21:16;;;;;;;5.82;2.70;;;14.10;69.90;;;;;;4958882;28;20038;-74
2022/09/04 03:23:58;;;;;;;6.18;2.55;;;14.10;70.00;;;;;;4988243;28;20129;-74
2022/09/04 03:26:26;;;;;;;2.83;2.40;;;14.10;70.00;;;;;;5000310;28;20029;-75
2022/09/04 03:29:18;;;;;;;5.22;2.65;;;14.10;70.00;;;;;;5003548;28;20022;-74
2022/09/04 03:31:57;;;;;;;3.22;2.45;;;14.10;70.10;;;;;;5001210;28;20046;-74
2022/09/04 03:34:45;;;;;;;5.97;3.10;;;14.10;70.10;;;;;;5001340;28;20041;-73
2022/09/04 03:37:23;;;;;;;4.70;2.40;;;14.20;70.30;;;;;;4997659;28;20567;-74
2022/09/04 03:40:17;;;;;;;4.30;2.58;;;14.10;70.40;;;;;;5001122;28;20034;-74
2022/09/04 03:43:05;;;;;;;3.97;2.70;;;14.10;70.60;;;;;;4968263;28;20417;-74
2022/09/04 03:45:47;;;;;;;8.50;2.97;;;14.10;70.80;;;;;;4983354;28;20057;-73
2022/09/04 03:48:43;;;;;;;4.05;3.10;;;14.10;71.00;;;;;;4985196;28;20556;-73
2022/09/04 03:51:24;;;;;;;3.45;2.83;;;14.10;71.10;;;;;;4904491;29;20134;-73
2022/09/04 03:54:05;;;;;;;4.72;2.70;;;14.10;71.30;;;;;;4919676;29;20103;-73
2022/09/04 03:56:45;;;;;;;3.85;2.70;;;14.10;71.40;;;;;;4922437;29;20083;-73
2022/09/04 03:59:34;;;;;;;3.95;3.28;;;14.10;71.40;;;;;;4906591;29;20050;-74
2022/09/04 04:02:00;;;;;;;3.67;2.70;;;14.10;71.60;;;;;;4936257;29;20043;-74
2022/09/04 04:04:45;;;;;;;7.07;3.05;;;14.10;71.70;;;;;;4905454;29;20514;-74
2022/09/04 04:07:27;;;;;;;5.72;2.97;;;14.10;71.70;;;;;;4921502;29;20047;-74
2022/09/04 04:10:12;;;;;;;4.05;2.80;;;14.10;71.80;;;;;;4920452;29;20657;-74
2022/09/04 04:13:15;;;;;;;7.05;2.92;;;14.10;72.00;;;;;;4937865;28;20083;-74
2022/09/04 04:16:09;;;;;;;5.50;3.00;;;14.10;72.10;;;;;;4937326;28;20071;-74
2022/09/04 04:19:05;;;;;;;3.80;2.63;;;14.20;72.10;;;;;;4922093;29;20040;-74
2022/09/04 04:21:56;;;;;;;4.85;2.88;;;14.10;72.10;;;;;;4903347;29;20040;-73
2022/09/04 04:24:38;;;;;;;6.80;2.97;;;14.20;72.30;;;;;;4919983;29;20514;-74
2022/09/04 04:27:24;;;;;;;4.13;2.90;;;14.20;72.10;;;;;;4937319;28;20057;-74
2022/09/04 04:30:02;;;;;;;5.18;2.83;;;14.20;72.00;;;;;;4979903;28;20065;-75
2022/09/04 04:32:46;;;;;;;2.75;2.28;;;14.20;71.80;;;;;;4967673;28;20374;-76
2022/09/04 04:35:24;;;;;;;4.35;2.95;;;14.30;71.80;;;;;;4979212;28;20383;-75
2022/09/04 04:38:11;;;;;;;8.65;2.90;;;14.30;71.80;;;;;;4983153;28;20152;-76
2022/09/04 04:40:59;;;;;;;5.50;2.63;;;14.30;71.70;;;;;;4970262;28;20042;-77
2022/09/04 04:43:51;;;;;;;4.10;2.38;;;14.30;71.60;;;;;;4980818;28;20495;-76
2022/09/04 04:46:38;;;;;;;3.78;2.45;;;14.40;71.30;;;;;;4979222;28;20042;-77
2022/09/04 04:49:24;;;;;;;4.65;2.67;;;14.40;71.20;;;;;;4981094;28;20576;-77
2022/09/04 04:52:18;;;;;;;2.67;2.15;;;14.40;71.20;;;;;;4982106;28;20579;-76
2022/09/04 04:55:12;;;;;;;4.35;2.20;;;14.50;71.00;;;;;;4983433;28;20088;-76
2022/09/04 04:57:52;;;;;;;2.95;2.13;;;14.50;70.80;;;;;;4981866;28;20034;-76
2022/09/04 05:00:32;;;;;;;3.17;2.28;;;14.60;70.30;;;;;;4980660;28;20133;-77
2022/09/04 05:03:31;;;;;;;3.05;2.00;;;14.80;69.70;;;;;;4980816;28;20054;-76
2022/09/04 05:06:01;;;;;;;4.20;1.95;;;15.10;69.10;;;;;;4983981;28;20033;-77
2022/09/04 05:09:00;;;;;;;2.25;2.05;;;15.40;68.50;;;;;;4981174;28;20042;-76
2022/09/04 05:11:52;;;;;;;5.75;1.65;;;15.70;67.90;;;;;;4984047;28;20030;-76
2022/09/04 05:14:36;;;;;;;4.97;1.52;;;16.00;67.20;;;;;;4982731;28;20492;-77
2022/09/04 05:17:23;;;;;;;2.83;1.63;;;16.30;66.40;;;;;;4980233;28;20085;-75
2022/09/04 05:20:21;;;;;;;1.67;1.48;;;16.60;65.50;;;;;;4984793;28;20138;-76
2022/09/04 05:23:04;;;;;;;2.25;1.30;;;16.80;64.80;;;;;;4979017;28;20047;-75
2022/09/04 05:25:51;;;;;;;1.33;1.23;;;17.00;64.50;;;;;;4979691;28;20113;-75
2022/09/04 05:28:35;;;;;;;1.80;1.20;;;17.30;64.00;;;;;;4983753;28;20658;-75
2022/09/04 05:31:35;;;;;;;1.55;1.00;;;17.50;63.30;;;;;;4979464;28;20042;-75
2022/09/04 05:34:32;;;;;;;2.17;0.90;;;17.80;62.70;;;;;;4981242;28;20482;-76
2022/09/04 05:37:12;;;;;;;2.20;1.00;;;18.00;62.00;;;;;;4963707;28;20055;-75
2022/09/04 05:39:47;;;;;;;4.43;1.30;;;18.20;61.90;;;;;;4969072;28;20034;-75
2022/09/04 05:42:32;;;;;;;;;;;18.40;61.70;;;;;;4983960;28;20088;-75
2022/09/04 05:45:46;;;;;;;1.20;1.10;;;18.50;61.30;;;;;;4983658;28;19945;-77
2022/09/04 05:48:42;;;;;;;1.65;1.15;;;18.80;60.60;;;;;;5000315;28;20041;-76
2022/09/04 05:51:32;;;;;;;1.35;1.08;;;19.00;60.00;;;;;;4984542;28;20039;-75
2022/09/04 05:54:20;;;;;;;3.60;1.13;;;19.20;59.60;;;;;;4984616;28;20038;-75
2022/09/04 05:57:20;;;;;;;1.25;0.88;;;19.30;58.30;;;;;;4983119;28;20038;-75
2022/09/04 06:00:09;;;;;;;1.55;1.00;;;19.60;57.40;;;;;;4982271;28;20041;-75
2022/09/04 06:03:04;;;;;;;1.63;0.82;;;19.80;56.70;;;;;;4984227;28;20038;-77
2022/09/04 06:05:51;;;;;;;1.85;0.80;;;20.00;56.40;;;;;;4982912;28;20066;-76
2022/09/04 06:08:35;;;;;;;1.23;0.70;;;20.10;57.20;;;;;;4982971;28;20097;-76
2022/09/04 06:11:38;;;;;;;3.42;1.05;;;20.30;57.10;;;;;;4979891;28;20081;-76
2022/09/04 06:14:09;;;;;;;1.33;0.90;;;20.40;56.10;;;;;;4982700;28;20062;-76
2022/09/04 06:16:35;;;;;;;1.35;1.00;;;20.60;55.20;;;;;;4982067;28;20041;-76
2022/09/04 06:19:33;;;;;;;2.00;1.10;;;20.80;55.70;;;;;;4981999;28;20038;-76
2022/09/04 06:22:36;;;;;;;0.80;0.73;;;21.00;55.40;;;;;;4952983;28;20117;-73
2022/09/04 06:25:39;;;;;;;1.42;0.95;;;21.20;54.60;;;;;;4979131;28;20602;-72
2022/09/04 06:28:31;;;;;;;4.40;0.70;;;21.30;54.20;;;;;;4980578;28;20049;-73
2022/09/04 06:31:18;;;;;;;1.73;0.80;;;21.50;54.80;;;;;;4981025;28;20511;-72
2022/09/04 06:34:13;;;;;;;2.60;0.90;;;21.70;54.30;;;;;;4995725;28;20123;-73
2022/09/04 06:37:01;;;;;;;2.67;1.20;;;21.80;53.60;;;;;;4971061;28;20133;-72
2022/09/04 06:39:41;;;;;;;2.38;1.00;;;21.90;53.70;;;;;;4979436;28;20489;-70
2022/09/04 06:42:22;;;;;;;4.30;1.23;;;22.00;53.50;;;;;;4981442;28;20026;-70
2022/09/04 06:45:09;;;;;;;5.00;0.90;;;22.20;52.60;;;;;;4984685;28;20034;-71
2022/09/04 06:47:41;;;;;;;2.22;0.70;;;22.30;53.40;;;;;;4983409;28;20112;-71
2022/09/04 06:50:19;;;;;;;3.97;0.95;;;22.50;53.60;;;;;;4984522;28;20041;-71
2022/09/04 06:53:13;;;;;;;7.90;1.05;;;22.60;52.00;;;;;;5000831;28;20042;-71
2022/09/04 06:56:06;;;;;;;5.72;0.90;;;22.70;52.30;;;;;;4981754;28;20039;-73
2022/09/04 06:59:05;;;;;;;3.95;0.90;;;22.70;51.60;;;;;;4983203;28;20125;-73
2022/09/04 07:01:50;;;;;;;3.97;0.70;;;22.80;51.20;;;;;;4997231;28;20053;-73
2022/09/04 07:04:30;;;;;;;1.48;0.70;;;22.90;51.10;;;;;;4984393;28;20413;-73
2022/09/04 07:07:11;;;;;;;1.77;0.60;;;23.00;49.90;;;;;;4991546;28;20057;-74
2022/09/04 07:09:39;;;;;;;8.02;0.80;;;23.10;49.90;;;;;;4989362;28;20104;-70
2022/09/04 07:12:23;;;;;;;3.97;0.80;;;23.10;49.90;;;;;;4989602;28;20048;-70
2022/09/04 07:14:58;;;;;;;6.20;1.08;;;23.20;49.70;;;;;;4993046;28;20039;-70
2022/09/04 07:17:39;;;;;;;;;;;23.30;49.60;;;;;;4987647;28;20034;-70
2022/09/04 07:20:26;;;;;;;2.58;0.75;;;23.30;48.90;;;;;;4992104;28;19953;-71
2022/09/04 07:23:01;;;;;;;3.63;0.60;;;23.30;49.40;;;;;;4983753;28;20042;-71
2022/09/04 07:26:16;;;;;;;3.90;0.77;;;23.40;49.40;;;;;;4992749;28;20058;-70
2022/09/04 07:29:20;;;;;;;4.05;0.70;;;23.40;49.40;;;;;;4988622;28;20066;-71
2022/09/04 07:32:03;;;;;;;3.80;0.90;;;23.50;48.60;;;;;;4989463;28;20046;-71
2022/09/04 07:34:51;;;;;;;2.78;0.60;;;23.50;49.50;;;;;;4988702;28;20035;-71
2022/09/04 07:37:31;;;;;;;1.65;0.63;;;23.60;50.40;;;;;;4979297;28;20717;-71
2022/09/04 07:40:10;;;;;;;2.67;0.68;;;23.50;50.10;;;;;;4983561;28;20576;-71
2022/09/04 07:42:41;;;;;;;4.25;0.60;;;23.50;50.70;;;;;;4985642;28;20390;-71
2022/09/04 07:45:28;;;;;;;3.13;0.75;;;23.50;50.20;;;;;;4988182;28;20031;-71
2022/09/04 07:48:27;;;;;;;2.60;1.02;;;23.40;49.80;;;;;;4987573;28;20038;-71
2022/09/04 07:51:03;;;;;;;2.08;0.73;;;23.30;50.50;;;;;;4983798;28;20447;-71
2022/09/04 07:53:29;;;;;;;4.15;0.73;;;23.30;49.60;;;;;;4986216;28;20549;-71
2022/09/04 07:56:15;;;;;;;1.52;0.70;;;23.40;50.30;;;;;;4991580;28;20109;-72
2022/09/04 07:59:08;;;;;;;1.40;0.60;;;23.40;48.30;;;;;;4992167;28;20420;-72
2022/09/04 08:01:52;;;;;;;2.28;0.60;;;23.40;48.80;;;;;;5003017;28;20034;-71
2022/09/04 08:04:53;;;;;;;1.20;0.70;;;23.40;50.00;;;;;;4994854;28;20570;-72
2022/09/04 08:07:50;;;;;;;4.43;0.60;;;23.40;49.80;;;;;;4989130;28;20042;-71
2022/09/04 08:10:59;;;;;;;3.53;0.60;;;23.40;49.00;;;;;;4990366;28;20184;-71
2022/09/04 08:14:02;;;;;;;1.33;0.65;;;23.40;49.90;;;;;;4987321;28;20497;-73
2022/09/04 08:16:37;;;;;;;0.70;0.60;;;23.30;49.70;;;;;;4987136;28;20057;-72
2022/09/04 08:19:48;;;;;;;1.02;0.45;;;23.30;49.20;;;;;;4990017;28;20040;-72
2022/09/04 08:22:45;;;;;;;1.65;0.75;;;23.20;49.70;;;;;;4976947;28;20075;-73
2022/09/04 08:25:38;;;;;;;2.95;0.60;;;23.20;49.30;;;;;;4967739;28;20039;-72
2022/09/04 08:28:23;;;;;;;2.17;0.47;;;23.10;49.90;;;;;;4990115;28;20044;-72
2022/09/04 08:30:58;;;;;;;1.80;0.88;;;23.10;49.10;;;;;;4990195;28;20026;-71
2022/09/04 08:33:27;;;;;;;3.95;0.70;;;23.00;49.90;;;;;;4982044;28;20063;-73
2022/09/04 08:36:02;;;;;;;6.65;0.90;;;22.90;49.80;;;;;;4980590;28;20089;-74
2022/09/04 08:38:35;;;;;;;7.45;1.00;;;22.90;48.60;;;;;;4982168;28;20030;-73
2022/09/04 08:41:24;;;;;;;1.05;0.40;;;22.80;48.90;;;;;;4982620;28;20513;-74
2022/09/04 08:44:02;;;;;;;3.92;0.60;;;22.80;49.40;;;;;;4979819;28;20050;-73
2022/09/04 08:46:34;;;;;;;1.63;0.60;;;22.70;49.60;;;;;;4981760;28;20034;-72
2022/09/04 08:49:10;;;;;;;5.30;0.73;;;22.70;49.70;;;;;;4965021;28;20149;-72
2022/09/04 08:52:13;;;;;;;2.15;0.73;;;22.60;49.80;;;;;;4980149;28;20043;-72
2022/09/04 08:54:59;;;;;;;3.85;0.63;;;22.60;50.10;;;;;;4980796;28;20138;-73
2022/09/04 08:57:37;;;;;;;5.07;1.00;;;22.60;49.70;;;;;;4980926;28;20652;-72
2022/09/04 09:00:27;;;;;;;8.20;0.80;;;22.50;49.70;;;;;;4990571;28;20034;-73
2022/09/04 09:03:33;;;;;;;7.20;1.00;;;22.40;49.70;;;;;;4994174;28;20506;-73
2022/09/04 09:06:18;;;;;;;7.28;0.93;;;22.40;49.80;;;;;;4963934;28;20042;-72
2022/09/04 09:09:22;;;;;;;4.05;1.08;;;22.40;49.50;;;;;;4981937;28;20038;-73
2022/09/04 09:12:44;;;;;;;18.42;1.70;;;22.40;48.90;;;;;;4978743;28;20390;-73
2022/09/04 09:15:26;;;;;;;3.65;0.90;;;22.30;49.40;;;;;;4911849;29;20506;-73
2022/09/04 09:18:16;;;;;;;4.15;0.77;;;22.30;50.00;;;;;;4926245;29;20036;-73
2022/09/04 09:21:05;;;;;;;6.30;1.02;;;22.40;49.80;;;;;;4914225;29;21074;-73
2022/09/04 09:24:08;;;;;;;3.03;0.60;;;22.30;49.10;;;;;;4924872;29;20044;-73
2022/09/04 09:26:43;;;;;;;7.97;1.05;;;22.30;49.70;;;;;;4923678;29;20088;-73
2022/09/04 09:29:18;;;;;;;1.95;0.47;;;22.30;48.70;;;;;;4924948;29;20086;-73
2022/09/04 09:31:47;;;;;;;2.28;0.52;;;22.30;49.00;;;;;;4923164;29;20059;-73
2022/09/04 09:34:40;;;;;;;2.88;0.70;;;22.30;48.40;;;;;;4908763;29;20040;-73
2022/09/04 09:37:42;;;;;;;2.60;0.52;;;22.30;48.30;;;;;;4910883;29;20059;-73
2022/09/04 09:40:36;;;;;;;1.25;0.35;;;22.20;47.80;;;;;;4925257;29;20039;-74
2022/09/04 09:43:17;;;;;;;1.38;0.47;;;22.20;48.30;;;;;;4924425;29;20063;-73
2022/09/04 09:46:26;;;;;;;1.95;0.60;;;22.10;48.80;;;;;;4966625;28;20412;-73
2022/09/04 09:49:11;;;;;;;1.80;0.60;;;22.10;48.90;;;;;;4987302;28;20026;-74
2022/09/04 09:51:42;;;;;;;0.82;0.50;;;22.10;48.80;;;;;;5001898;28;20197;-73
2022/09/04 09:54:46;;;;;;;0.52;0.40;;;22.10;48.40;;;;;;5003824;28;20042;-73
2022/09/04 09:57:30;;;;;;;1.20;0.40;;;22.10;48.40;;;;;;4989436;28;20397;-73
2022/09/04 10:00:24;;;;;;;0.70;0.60;;;22.00;47.70;;;;;;5003970;28;20034;-73
2022/09/04 10:03:30;;;;;;;1.63;0.50;;;22.00;47.80;;;;;;5002795;28;20852;-73
2022/09/04 10:06:25;;;;;;;1.75;0.50;;;22.00;48.20;;;;;;5003010;28;20042;-73
2022/09/04 10:09:00;;;;;;;1.38;0.70;;;21.90;47.80;;;;;;5003894;28;20038;-72
2022/09/04 10:12:11;;;;;;;1.48;0.43;;;22.00;48.30;;;;;;5002078;28;20129;-72
2022/09/04 10:14:52;;;;;;;1.40;0.38;;;21.90;47.90;;;;;;4984097;28;20231;-73
2022/09/04 10:17:24;;;;;;;1.85;0.60;;;21.90;47.70;;;;;;4984801;28;20069;-72
2022/09/04 10:20:25;;;;;;;1.25;0.60;;;21.90;47.40;;;;;;5003600;28;20497;-72
2022/09/04 10:23:12;;;;;;;0.85;0.45;;;21.90;47.80;;;;;;4966724;28;20049;-71
2022/09/04 10:25:57;;;;;;;1.25;0.60;;;21.80;47.20;;;;;;5001883;28;20034;-72
2022/09/04 10:28:43;;;;;;;0.67;0.50;;;21.80;46.20;;;;;;5002220;28;20030;-72
2022/09/04 10:31:26;;;;;;;;;;;21.70;46.80;;;;;;5002481;28;20034;-72
2022/09/04 10:34:03;;;;;;;2.28;0.70;;;21.70;47.30;;;;;;5001012;28;19917;-72
2022/09/04 10:36:38;;;;;;;1.52;0.85;;;21.80;47.30;;;;;;4984063;28;20520;-72
2022/09/04 10:42:06;;;;;;;1.23;0.50;;;21.70;46.20;;;;;;5001009;28;20039;-73
2022/09/04 10:44:51;;;;;;;0.65;0.40;;;21.60;46.20;;;;;;5000899;28;20121;-72
2022/09/04 10:47:43;;;;;;;0.68;0.60;;;21.60;46.20;;;;;;5002662;28;20038;-72
2022/09/04 10:50:38;;;;;;;1.17;0.50;;;21.60;46.20;;;;;;5001902;28;20033;-73
2022/09/04 10:53:13;;;;;;;0.52;0.50;;;21.60;46.10;;;;;;4911171;29;20630;-72
2022/09/04 10:56:15;;;;;;;0.55;0.52;;;21.60;46.10;;;;;;4927593;29;20104;-72
2022/09/04 10:59:22;;;;;;;2.65;0.40;;;21.60;46.30;;;;;;4946256;29;20054;-72
2022/09/04 11:02:09;;;;;;;0.40;0.40;;;21.60;45.70;;;;;;4945536;29;20043;-72
2022/09/04 11:05:14;;;;;;;22.35;1.45;;;21.60;45.60;;;;;;4943563;29;20035;-79
2022/09/04 11:07:47;;;;;;;0.90;0.50;;;21.60;45.60;;;;;;4946580;28;20047;-78
2022/09/04 11:10:31;;;;;;;0.85;0.50;;;21.60;45.50;;;;;;4944632;29;20506;-73
2022/09/04 11:13:48;;;;;;;1.90;0.40;;;21.60;46.20;;;;;;4933231;29;20047;-75
2022/09/04 11:16:45;;;;;;;2.00;0.57;;;21.60;46.40;;;;;;4945242;28;20043;-73
2022/09/04 11:19:35;;;;;;;2.67;0.60;;;21.60;46.50;;;;;;4896023;29;20055;-76
2022/09/04 11:22:18;;;;;;;4.15;0.65;;;21.60;46.30;;;;;;4894145;29;20123;-75
2022/09/04 11:25:03;;;;;;;4.35;0.90;;;21.60;46.50;;;;;;4895365;29;20037;-74
2022/09/04 11:28:06;;;;;;;1.65;0.52;;;21.60;46.80;;;;;;4897268;29;20064;-74
2022/09/04 11:30:35;;;;;;;4.28;0.57;;;21.60;46.90;;;;;;4896156;29;20448;-74
2022/09/04 11:33:49;;;;;;;1.23;0.50;;;21.60;47.60;;;;;;4894345;29;20033;-74
2022/09/04 11:36:35;;;;;;;2.78;0.80;;;21.60;47.50;;;;;;4867413;29;20540;-75
2022/09/04 11:39:16;;;;;;;1.42;0.70;;;21.60;47.30;;;;;;4939242;28;20162;-75
2022/09/04 11:42:18;;;;;;;15.18;3.83;;;21.60;46.80;;;;;;4968359;28;20038;-74
2022/09/04 11:45:04;;;;;;;21.05;6.93;;;21.60;46.40;;;;;;4950760;28;20041;-76
2022/09/04 11:48:28;;;;;;;22.02;6.65;;;21.60;47.60;;;;;;4968792;28;20081;-75
2022/09/04 11:51:24;;;;;;;21.38;5.43;;;21.60;47.70;;;;;;4891587;29;20088;-75
2022/09/04 11:54:08;;;;;;;;;;;21.60;48.00;;;;;;4908651;29;20032;-75
2022/09/04 11:56:52;;;;;;;18.92;4.15;;;21.60;47.30;;;;;;4944105;29;19914;-75
2022/09/04 11:59:33;;;;;;;18.40;4.35;;;21.60;47.50;;;;;;4945512;29;20043;-75
2022/09/04 12:02:17;;;;;;;22.63;5.32;;;21.60;47.30;;;;;;4914151;29;20035;-74
2022/09/04 12:05:05;;;;;;;20.05;4.20;;;21.60;47.60;;;;;;4928383;29;20038;-74
2022/09/04 12:07:42;;;;;;;13.55;4.30;;;21.50;47.50;;;;;;4913489;29;20467;-75
2022/09/04 12:10:41;;;;;;;15.95;3.92;;;21.50;48.00;;;;;;4926413;29;20042;-74
2022/09/04 12:13:09;;;;;;;14.15;4.00;;;21.50;48.70;;;;;;4896209;29;20132;-74
2022/09/04 12:16:07;;;;;;;17.38;4.32;;;21.50;49.50;;;;;;4906465;29;20044;-75
2022/09/04 12:18:57;;;;;;;17.88;3.50;;;21.50;50.70;;;;;;4931452;29;20294;-74
2022/09/04 12:21:46;;;;;;;11.95;3.63;;;21.50;51.20;;;;;;4910769;29;20537;-73
2022/09/04 12:24:48;;;;;;;11.60;3.50;;;21.50;50.90;;;;;;4906842;29;20071;-74
2022/09/04 12:27:41;;;;;;;9.75;2.90;;;21.50;50.60;;;;;;4929095;28;20046;-74
2022/09/04 12:30:36;;;;;;;13.45;3.15;;;21.50;50.20;;;;;;4959799;28;20063;-74
2022/09/04 12:33:07;;;;;;;8.32;2.40;;;21.50;50.40;;;;;;4899628;29;20665;-73
2022/09/04 12:35:45;;;;;;;14.63;2.90;;;21.50;50.60;;;;;;4904387;29;20408;-73
2022/09/04 12:38:23;;;;;;;10.27;2.40;;;21.50;50.00;;;;;;4916392;29;20059;-73
2022/09/04 12:41:10;;;;;;;4.43;1.90;;;21.50;50.30;;;;;;4915244;29;20048;-72
2022/09/04 12:43:51;;;;;;;10.65;2.22;;;21.50;50.50;;;;;;4899771;29;20568;-73
2022/09/04 12:46:43;;;;;;;4.15;1.90;;;21.50;50.00;;;;;;4899733;29;20066;-73
2022/09/04 12:49:35;;;;;;;7.15;2.10;;;21.50;49.90;;;;;;4903115;29;20036;-75
2022/09/04 12:52:18;;;;;;;3.75;1.52;;;21.50;50.20;;;;;;4903757;29;20478;-76
2022/09/04 12:54:52;;;;;;;3.47;1.40;;;21.50;49.10;;;;;;4918875;28;20075;-75
2022/09/04 12:57:28;;;;;;;9.90;1.70;;;21.50;49.20;;;;;;4920442;29;20078;-76
2022/09/04 13:00:32;;;;;;;4.45;1.70;;;21.50;49.20;;;;;;4918631;29;20028;-78
2022/09/04 13:03:25;;;;;;;5.18;1.60;;;21.40;49.50;;;;;;4918713;29;20036;-77
2022/09/04 13:06:26;;;;;;;5.28;1.60;;;21.50;48.80;;;;;;4918701;29;20142;-79
2022/09/04 13:08:58;;;;;;;4.93;1.50;;;21.50;48.90;;;;;;4928237;28;20044;-78
2022/09/04 13:11:39;;;;;;;;;;;21.50;48.90;;;;;;4988164;28;20045;-80
2022/09/04 13:14:29;;;;;;;4.38;1.10;;;21.50;48.60;;;;;;5003933;28;19917;-77
2022/09/04 13:17:04;;;;;;;3.00;1.20;;;21.50;48.40;;;;;;5002835;28;20509;-78
2022/09/04 13:19:48;;;;;;;2.35;1.30;;;21.50;48.00;;;;;;5002319;28;20034;-76
2022/09/04 13:22:38;;;;;;;3.53;1.13;;;21.50;47.30;;;;;;4987360;28;20538;-76
2022/09/04 13:25:32;;;;;;;1.48;0.88;;;21.40;47.70;;;;;;4986658;28;20173;-76
2022/09/04 13:28:22;;;;;;;2.95;0.93;;;21.40;47.90;;;;;;4985503;28;20401;-77
2022/09/04 13:31:14;;;;;;;7.13;1.10;;;21.40;47.90;;;;;;4984846;28;20061;-76
2022/09/04 13:33:56;;;;;;;1.70;0.80;;;21.40;48.10;;;;;;5001624;28;20373;-76
2022/09/04 13:36:44;;;;;;;1.60;1.00;;;21.40;48.10;;;;;;5010018;28;20524;-78
2022/09/04 13:39:34;;;;;;;4.20;1.02;;;21.40;48.20;;;;;;4967240;28;20109;-77
2022/09/04 13:42:25;;;;;;;7.10;1.20;;;21.40;47.70;;;;;;5012625;28;20072;-76
2022/09/04 13:45:12;;;;;;;2.47;1.00;;;21.30;47.70;;;;;;4980471;28;20041;-77
2022/09/04 13:47:56;;;;;;;3.28;0.80;;;21.30;47.40;;;;;;4994129;28;20072;-77
2022/09/04 13:50:36;;;;;;;2.60;1.10;;;21.20;46.90;;;;;;4997546;28;20041;-76
2022/09/04 13:53:15;;;;;;;4.60;0.88;;;21.10;47.10;;;;;;5006188;28;20116;-76
2022/09/04 13:56:08;;;;;;;1.50;0.90;;;21.10;46.90;;;;;;5013484;28;20073;-79
2022/09/04 13:58:45;;;;;;;2.85;0.98;;;21.00;46.80;;;;;;4993513;28;20030;-78
2022/09/04 14:01:15;;;;;;;3.03;1.00;;;21.00;46.90;;;;;;5005048;28;20046;-77
2022/09/04 14:03:47;;;;;;;3.22;1.15;;;20.90;46.80;;;;;;4995852;28;20030;-78
2022/09/04 14:06:17;;;;;;;1.67;1.13;;;20.90;46.80;;;;;;5013453;28;20402;-77
2022/09/04 14:08:46;;;;;;;1.35;1.10;;;20.80;46.80;;;;;;5013521;28;20519;-78
2022/09/04 14:11:29;;;;;;;4.70;0.93;;;20.70;46.60;;;;;;4993423;28;20037;-77
2022/09/04 14:14:02;;;;;;;1.17;0.80;;;20.70;46.60;;;;;;5013405;28;20050;-79
2022/09/04 14:16:31;;;;;;;1.45;1.08;;;20.70;46.20;;;;;;5009120;28;20417;-77
2022/09/04 14:19:16;;;;;;;1.48;1.02;;;20.70;46.40;;;;;;4993378;28;20165;-79
2022/09/04 14:22:06;;;;;;;2.28;0.80;;;20.60;45.90;;;;;;5008787;28;20041;-77
2022/09/04 14:24:47;;;;;;;1.23;0.88;;;20.50;46.10;;;;;;5007033;28;20045;-76
2022/09/04 14:27:45;;;;;;;1.00;0.70;;;20.50;46.90;;;;;;4984175;28;20068;-75
2022/09/04 14:30:21;;;;;;;2.25;0.80;;;20.50;46.80;;;;;;4968333;28;20887;-77